sensor_id;sensor_type;location;lat;lon;timestamp;temperature;humidity
46231;DHT22;31949;51.404;-0.038;2022-10-23T00:01:32;14.90;99.90
46231;DHT22;31949;51.404;-0.038;2022-10-23T00:04:05;14.90;99.90
46231;DHT22;31949;51.404;-0.038;2022-10-23T00:06:33;14.90;99.90
46231;DHT22;31949;51.404;-0.038;2022-10-23T00:09:03;14.90;99.90
46231;DHT22;31949;51.404;-0.038;2022-10-23T00:11:31;14.90;99.90
46231;DHT22;31949;51.404;-0.038;2022-10-23T00:14:00;14.90;99.90
46231;DHT22;31949;51.404;-0.038;2022-10-23T00:16:29;14.90;99.90
46231;DHT22;31949;51.404;-0.038;2022-10-23T00:18:56;14.90;99.90
46231;DHT22;31949;51.404;-0.038;2022-10-23T00:21:24;14.90;99.90
46231;DHT22;31949;51.404;-0.038;2022-10-23T00:23:51;14.90;99.90
46231;DHT22;31949;51.404;-0.038;2022-10-23T00:26:19;14.90;99.90
46231;DHT22;31949;51.404;-0.038;2022-10-23T00:28:49;14.90;99.90
46231;DHT22;31949;51.404;-0.038;2022-10-23T00:31:17;14.90;99.90
46231;DHT22;31949;51.404;-0.038;2022-10-23T00:33:45;14.90;99.90
46231;DHT22;31949;51.404;-0.038;2022-10-23T00:36:15;14.90;99.90
46231;DHT22;31949;51.404;-0.038;2022-10-23T00:38:43;14.90;99.90
46231;DHT22;31949;51.404;-0.038;2022-10-23T00:41:18;14.90;99.90
46231;DHT22;31949;51.404;-0.038;2022-10-23T00:46:43;14.90;99.90
46231;DHT22;31949;51.404;-0.038;2022-10-23T00:49:12;14.90;99.90
46231;DHT22;31949;51.404;-0.038;2022-10-23T00:51:46;14.90;99.90
46231;DHT22;31949;51.404;-0.038;2022-10-23T00:54:18;14.90;99.90
46231;DHT22;31949;51.404;-0.038;2022-10-23T00:56:52;14.90;99.90
46231;DHT22;31949;51.404;-0.038;2022-10-23T00:59:21;14.80;99.90
46231;DHT22;31949;51.404;-0.038;2022-10-23T01:01:49;14.80;99.90
46231;DHT22;31949;51.404;-0.038;2022-10-23T01:04:16;14.90;99.90
46231;DHT22;31949;51.404;-0.038;2022-10-23T01:06:45;14.90;99.90
46231;DHT22;31949;51.404;-0.038;2022-10-23T01:09:20;14.90;99.90
46231;DHT22;31949;51.404;-0.038;2022-10-23T01:20:43;14.90;99.90
46231;DHT22;31949;51.404;-0.038;2022-10-23T01:26:34;14.90;99.90
46231;DHT22;31949;51.404;-0.038;2022-10-23T01:29:18;14.90;99.90
46231;DHT22;31949;51.404;-0.038;2022-10-23T01:31:52;14.90;99.90
46231;DHT22;31949;51.404;-0.038;2022-10-23T01:34:29;14.90;99.90
46231;DHT22;31949;51.404;-0.038;2022-10-23T01:37:00;14.90;99.90
46231;DHT22;31949;51.404;-0.038;2022-10-23T01:39:34;14.90;99.90
46231;DHT22;31949;51.404;-0.038;2022-10-23T01:42:10;14.90;99.90
46231;DHT22;31949;51.404;-0.038;2022-10-23T01:47:12;14.90;99.90
46231;DHT22;31949;51.404;-0.038;2022-10-23T01:49:53;14.90;99.90
46231;DHT22;31949;51.404;-0.038;2022-10-23T01:52:22;14.90;99.90
46231;DHT22;31949;51.404;-0.038;2022-10-23T01:54:52;14.90;99.90
46231;DHT22;31949;51.404;-0.038;2022-10-23T01:57:22;14.90;99.90
46231;DHT22;31949;51.404;-0.038;2022-10-23T02:00:05;14.90;99.90
46231;DHT22;31949;51.404;-0.038;2022-10-23T02:02:36;14.90;99.90
46231;DHT22;31949;51.404;-0.038;2022-10-23T02:07:40;14.90;99.90
46231;DHT22;31949;51.404;-0.038;2022-10-23T02:10:09;15.00;99.90
46231;DHT22;31949;51.404;-0.038;2022-10-23T02:13:08;15.00;99.90
46231;DHT22;31949;51.404;-0.038;2022-10-23T02:15:44;14.90;99.90
46231;DHT22;31949;51.404;-0.038;2022-10-23T02:18:30;15.00;99.90
46231;DHT22;31949;51.404;-0.038;2022-10-23T02:21:07;14.90;99.90
46231;DHT22;31949;51.404;-0.038;2022-10-23T02:23:42;15.00;99.90
46231;DHT22;31949;51.404;-0.038;2022-10-23T02:26:19;15.00;99.90
46231;DHT22;31949;51.404;-0.038;2022-10-23T02:28:53;15.00;99.90
46231;DHT22;31949;51.404;-0.038;2022-10-23T02:31:22;15.00;99.90
46231;DHT22;31949;51.404;-0.038;2022-10-23T02:33:50;15.00;99.90
46231;DHT22;31949;51.404;-0.038;2022-10-23T02:36:18;15.00;99.90
46231;DHT22;31949;51.404;-0.038;2022-10-23T02:38:46;15.00;99.90
46231;DHT22;31949;51.404;-0.038;2022-10-23T02:43:56;15.00;99.90
46231;DHT22;31949;51.404;-0.038;2022-10-23T02:49:26;15.00;99.90
46231;DHT22;31949;51.404;-0.038;2022-10-23T02:52:05;15.00;99.90
46231;DHT22;31949;51.404;-0.038;2022-10-23T02:57:46;15.00;99.90
46231;DHT22;31949;51.404;-0.038;2022-10-23T03:00:20;15.00;99.90
46231;DHT22;31949;51.404;-0.038;2022-10-23T03:02:56;15.00;99.90
46231;DHT22;31949;51.404;-0.038;2022-10-23T03:05:31;15.00;99.90
46231;DHT22;31949;51.404;-0.038;2022-10-23T03:08:07;15.00;99.90
46231;DHT22;31949;51.404;-0.038;2022-10-23T03:10:35;15.00;99.90
46231;DHT22;31949;51.404;-0.038;2022-10-23T03:13:03;15.00;99.90
46231;DHT22;31949;51.404;-0.038;2022-10-23T03:15:37;15.00;99.90
46231;DHT22;31949;51.404;-0.038;2022-10-23T03:18:05;15.00;99.90
46231;DHT22;31949;51.404;-0.038;2022-10-23T03:20:32;15.00;99.90
46231;DHT22;31949;51.404;-0.038;2022-10-23T03:22:59;15.00;99.90
46231;DHT22;31949;51.404;-0.038;2022-10-23T03:25:27;14.90;99.90
46231;DHT22;31949;51.404;-0.038;2022-10-23T03:27:56;14.90;99.90
46231;DHT22;31949;51.404;-0.038;2022-10-23T03:30:23;14.90;99.90
46231;DHT22;31949;51.404;-0.038;2022-10-23T03:32:53;14.90;99.90
46231;DHT22;31949;51.404;-0.038;2022-10-23T03:35:20;15.00;99.90
46231;DHT22;31949;51.404;-0.038;2022-10-23T03:37:47;14.90;99.90
46231;DHT22;31949;51.404;-0.038;2022-10-23T03:40:15;14.90;99.90
46231;DHT22;31949;51.404;-0.038;2022-10-23T03:42:42;14.90;99.90
46231;DHT22;31949;51.404;-0.038;2022-10-23T03:45:12;14.90;99.90
46231;DHT22;31949;51.404;-0.038;2022-10-23T03:47:39;15.00;99.90
46231;DHT22;31949;51.404;-0.038;2022-10-23T03:50:08;15.00;99.90
46231;DHT22;31949;51.404;-0.038;2022-10-23T03:52:36;15.00;99.90
46231;DHT22;31949;51.404;-0.038;2022-10-23T03:55:03;14.90;99.90
46231;DHT22;31949;51.404;-0.038;2022-10-23T03:57:31;14.90;99.90
46231;DHT22;31949;51.404;-0.038;2022-10-23T03:59:58;14.90;99.90
46231;DHT22;31949;51.404;-0.038;2022-10-23T04:02:28;14.90;99.90
46231;DHT22;31949;51.404;-0.038;2022-10-23T04:04:55;14.90;99.90
46231;DHT22;31949;51.404;-0.038;2022-10-23T04:07:22;14.90;99.90
46231;DHT22;31949;51.404;-0.038;2022-10-23T04:09:49;15.00;99.90
46231;DHT22;31949;51.404;-0.038;2022-10-23T04:12:16;15.00;99.90
46231;DHT22;31949;51.404;-0.038;2022-10-23T04:14:43;15.00;99.90
46231;DHT22;31949;51.404;-0.038;2022-10-23T04:17:10;15.00;99.90
46231;DHT22;31949;51.404;-0.038;2022-10-23T04:19:37;15.00;99.90
46231;DHT22;31949;51.404;-0.038;2022-10-23T04:22:05;15.00;99.90
46231;DHT22;31949;51.404;-0.038;2022-10-23T04:24:32;15.00;99.90
46231;DHT22;31949;51.404;-0.038;2022-10-23T04:27:00;15.00;99.90
46231;DHT22;31949;51.404;-0.038;2022-10-23T04:29:28;15.00;99.90
46231;DHT22;31949;51.404;-0.038;2022-10-23T04:31:58;15.10;99.90
46231;DHT22;31949;51.404;-0.038;2022-10-23T04:34:25;15.10;99.90
46231;DHT22;31949;51.404;-0.038;2022-10-23T04:36:53;15.00;99.90
46231;DHT22;31949;51.404;-0.038;2022-10-23T04:39:20;15.10;99.90
46231;DHT22;31949;51.404;-0.038;2022-10-23T04:41:47;15.10;99.90
46231;DHT22;31949;51.404;-0.038;2022-10-23T04:44:14;15.10;99.90
46231;DHT22;31949;51.404;-0.038;2022-10-23T04:46:41;15.10;99.90
46231;DHT22;31949;51.404;-0.038;2022-10-23T04:49:09;15.10;99.90
46231;DHT22;31949;51.404;-0.038;2022-10-23T04:51:46;15.10;99.90
46231;DHT22;31949;51.404;-0.038;2022-10-23T04:54:36;15.10;99.90
46231;DHT22;31949;51.404;-0.038;2022-10-23T04:57:24;15.10;99.90
46231;DHT22;31949;51.404;-0.038;2022-10-23T05:00:05;15.20;99.90
46231;DHT22;31949;51.404;-0.038;2022-10-23T05:02:44;15.20;99.90
46231;DHT22;31949;51.404;-0.038;2022-10-23T05:05:13;15.20;99.90
46231;DHT22;31949;51.404;-0.038;2022-10-23T05:07:59;15.20;99.90
46231;DHT22;31949;51.404;-0.038;2022-10-23T05:10:37;15.20;99.90
46231;DHT22;31949;51.404;-0.038;2022-10-23T05:13:09;15.20;99.90
46231;DHT22;31949;51.404;-0.038;2022-10-23T05:15:38;15.20;99.90
46231;DHT22;31949;51.404;-0.038;2022-10-23T05:20:47;15.30;99.90
46231;DHT22;31949;51.404;-0.038;2022-10-23T05:23:17;15.30;99.90
46231;DHT22;31949;51.404;-0.038;2022-10-23T05:25:59;15.30;99.90
46231;DHT22;31949;51.404;-0.038;2022-10-23T05:28:26;15.30;99.90
46231;DHT22;31949;51.404;-0.038;2022-10-23T05:30:53;15.30;99.90
46231;DHT22;31949;51.404;-0.038;2022-10-23T05:33:25;15.30;99.90
46231;DHT22;31949;51.404;-0.038;2022-10-23T05:35:53;15.40;99.90
46231;DHT22;31949;51.404;-0.038;2022-10-23T05:38:21;15.40;99.90
46231;DHT22;31949;51.404;-0.038;2022-10-23T05:40:50;15.40;99.90
46231;DHT22;31949;51.404;-0.038;2022-10-23T05:43:18;15.40;99.90
46231;DHT22;31949;51.404;-0.038;2022-10-23T05:45:53;15.40;99.90
46231;DHT22;31949;51.404;-0.038;2022-10-23T05:48:43;15.40;99.90
46231;DHT22;31949;51.404;-0.038;2022-10-23T05:51:36;15.50;99.90
46231;DHT22;31949;51.404;-0.038;2022-10-23T05:54:19;15.50;99.90
46231;DHT22;31949;51.404;-0.038;2022-10-23T05:57:12;15.50;99.90
46231;DHT22;31949;51.404;-0.038;2022-10-23T05:59:46;15.50;99.90
46231;DHT22;31949;51.404;-0.038;2022-10-23T06:02:39;15.60;99.90
46231;DHT22;31949;51.404;-0.038;2022-10-23T06:05:27;15.60;99.90
46231;DHT22;31949;51.404;-0.038;2022-10-23T06:08:17;15.60;99.90
46231;DHT22;31949;51.404;-0.038;2022-10-23T06:10:47;15.60;99.90
46231;DHT22;31949;51.404;-0.038;2022-10-23T06:13:14;15.60;99.90
46231;DHT22;31949;51.404;-0.038;2022-10-23T06:15:42;15.60;99.90
46231;DHT22;31949;51.404;-0.038;2022-10-23T06:18:15;15.60;99.90
46231;DHT22;31949;51.404;-0.038;2022-10-23T06:21:00;15.70;99.90
46231;DHT22;31949;51.404;-0.038;2022-10-23T06:23:33;15.70;99.90
46231;DHT22;31949;51.404;-0.038;2022-10-23T06:26:19;15.70;99.90
46231;DHT22;31949;51.404;-0.038;2022-10-23T06:28:56;15.70;99.90
46231;DHT22;31949;51.404;-0.038;2022-10-23T06:31:25;15.70;99.90
46231;DHT22;31949;51.404;-0.038;2022-10-23T06:33:57;15.80;99.90
46231;DHT22;31949;51.404;-0.038;2022-10-23T06:36:26;15.80;99.90
46231;DHT22;31949;51.404;-0.038;2022-10-23T06:39:01;15.70;99.90
46231;DHT22;31949;51.404;-0.038;2022-10-23T06:41:48;15.80;99.90
46231;DHT22;31949;51.404;-0.038;2022-10-23T06:44:35;15.70;99.90
46231;DHT22;31949;51.404;-0.038;2022-10-23T06:47:08;15.80;99.90
46231;DHT22;31949;51.404;-0.038;2022-10-23T06:50:00;15.80;99.90
46231;DHT22;31949;51.404;-0.038;2022-10-23T06:52:28;15.70;99.90
46231;DHT22;31949;51.404;-0.038;2022-10-23T06:55:17;15.70;99.90
46231;DHT22;31949;51.404;-0.038;2022-10-23T06:57:45;15.70;99.90
46231;DHT22;31949;51.404;-0.038;2022-10-23T07:00:13;15.70;99.90
46231;DHT22;31949;51.404;-0.038;2022-10-23T07:02:51;15.70;99.90
46231;DHT22;31949;51.404;-0.038;2022-10-23T07:05:19;15.60;99.90
46231;DHT22;31949;51.404;-0.038;2022-10-23T07:07:47;15.50;99.90
46231;DHT22;31949;51.404;-0.038;2022-10-23T07:10:21;15.60;99.90
46231;DHT22;31949;51.404;-0.038;2022-10-23T07:12:53;15.50;99.90
46231;DHT22;31949;51.404;-0.038;2022-10-23T07:15:38;15.60;99.90
46231;DHT22;31949;51.404;-0.038;2022-10-23T07:18:09;15.50;99.90
46231;DHT22;31949;51.404;-0.038;2022-10-23T07:20:59;15.50;99.90
46231;DHT22;31949;51.404;-0.038;2022-10-23T07:23:28;15.50;99.90
46231;DHT22;31949;51.404;-0.038;2022-10-23T07:25:55;15.50;99.90
46231;DHT22;31949;51.404;-0.038;2022-10-23T07:28:28;15.50;99.90
46231;DHT22;31949;51.404;-0.038;2022-10-23T07:30:59;15.50;99.90
46231;DHT22;31949;51.404;-0.038;2022-10-23T07:33:44;15.50;99.90
46231;DHT22;31949;51.404;-0.038;2022-10-23T07:36:16;15.50;99.90
46231;DHT22;31949;51.404;-0.038;2022-10-23T07:38:44;15.50;99.90
46231;DHT22;31949;51.404;-0.038;2022-10-23T07:41:11;15.50;99.90
46231;DHT22;31949;51.404;-0.038;2022-10-23T07:43:39;15.50;99.90
46231;DHT22;31949;51.404;-0.038;2022-10-23T07:46:06;15.50;99.90
46231;DHT22;31949;51.404;-0.038;2022-10-23T07:48:39;15.50;99.90
46231;DHT22;31949;51.404;-0.038;2022-10-23T07:51:11;15.50;99.90
46231;DHT22;31949;51.404;-0.038;2022-10-23T07:53:45;15.50;99.90
46231;DHT22;31949;51.404;-0.038;2022-10-23T07:56:32;15.50;99.90
46231;DHT22;31949;51.404;-0.038;2022-10-23T07:59:14;15.60;99.90
46231;DHT22;31949;51.404;-0.038;2022-10-23T08:01:47;15.60;99.90
46231;DHT22;31949;51.404;-0.038;2022-10-23T08:04:19;15.60;99.90
46231;DHT22;31949;51.404;-0.038;2022-10-23T08:06:55;15.60;99.90
46231;DHT22;31949;51.404;-0.038;2022-10-23T08:09:24;15.70;99.90
46231;DHT22;31949;51.404;-0.038;2022-10-23T08:11:51;15.70;99.90
46231;DHT22;31949;51.404;-0.038;2022-10-23T08:14:21;15.70;99.90
46231;DHT22;31949;51.404;-0.038;2022-10-23T08:16:49;15.70;99.90
46231;DHT22;31949;51.404;-0.038;2022-10-23T08:19:16;15.70;99.90
46231;DHT22;31949;51.404;-0.038;2022-10-23T08:21:45;15.70;99.90
46231;DHT22;31949;51.404;-0.038;2022-10-23T08:24:13;15.70;99.90
46231;DHT22;31949;51.404;-0.038;2022-10-23T08:26:43;15.70;99.90
46231;DHT22;31949;51.404;-0.038;2022-10-23T08:29:12;15.70;99.90
46231;DHT22;31949;51.404;-0.038;2022-10-23T08:31:39;15.70;99.90
46231;DHT22;31949;51.404;-0.038;2022-10-23T08:34:14;15.70;99.90
46231;DHT22;31949;51.404;-0.038;2022-10-23T08:36:44;15.70;99.90
46231;DHT22;31949;51.404;-0.038;2022-10-23T08:39:12;15.70;99.90
46231;DHT22;31949;51.404;-0.038;2022-10-23T08:41:50;15.70;99.90
46231;DHT22;31949;51.404;-0.038;2022-10-23T08:44:39;15.70;99.90
46231;DHT22;31949;51.404;-0.038;2022-10-23T08:47:17;15.70;99.90
46231;DHT22;31949;51.404;-0.038;2022-10-23T08:50:13;15.70;99.90
46231;DHT22;31949;51.404;-0.038;2022-10-23T08:52:52;15.70;99.90
46231;DHT22;31949;51.404;-0.038;2022-10-23T08:55:30;15.80;99.90
46231;DHT22;31949;51.404;-0.038;2022-10-23T08:58:20;15.70;99.90
46231;DHT22;31949;51.404;-0.038;2022-10-23T09:00:50;15.80;99.90
46231;DHT22;31949;51.404;-0.038;2022-10-23T09:03:18;15.80;99.90
46231;DHT22;31949;51.404;-0.038;2022-10-23T09:19:23;15.90;99.90
46231;DHT22;31949;51.404;-0.038;2022-10-23T09:21:54;16.00;99.90
46231;DHT22;31949;51.404;-0.038;2022-10-23T09:24:23;16.10;99.90
46231;DHT22;31949;51.404;-0.038;2022-10-23T09:26:52;16.00;99.90
46231;DHT22;31949;51.404;-0.038;2022-10-23T09:31:59;16.20;99.90
46231;DHT22;31949;51.404;-0.038;2022-10-23T09:34:29;16.30;99.90
46231;DHT22;31949;51.404;-0.038;2022-10-23T09:37:28;16.30;99.90
46231;DHT22;31949;51.404;-0.038;2022-10-23T09:40:28;16.30;99.90
46231;DHT22;31949;51.404;-0.038;2022-10-23T09:43:02;16.30;99.90
46231;DHT22;31949;51.404;-0.038;2022-10-23T09:45:33;16.30;99.90
46231;DHT22;31949;51.404;-0.038;2022-10-23T09:48:17;16.30;99.90
46231;DHT22;31949;51.404;-0.038;2022-10-23T09:50:59;16.30;99.90
46231;DHT22;31949;51.404;-0.038;2022-10-23T09:53:38;16.30;99.90
46231;DHT22;31949;51.404;-0.038;2022-10-23T09:59:03;16.30;99.90
46231;DHT22;31949;51.404;-0.038;2022-10-23T10:01:45;16.40;99.90
46231;DHT22;31949;51.404;-0.038;2022-10-23T10:04:40;16.30;99.90
46231;DHT22;31949;51.404;-0.038;2022-10-23T10:07:25;16.40;99.90
46231;DHT22;31949;51.404;-0.038;2022-10-23T10:09:54;16.40;99.90
46231;DHT22;31949;51.404;-0.038;2022-10-23T10:18:46;16.40;99.90
46231;DHT22;31949;51.404;-0.038;2022-10-23T10:30:13;16.40;99.90
46231;DHT22;31949;51.404;-0.038;2022-10-23T10:32:53;16.30;99.90
46231;DHT22;31949;51.404;-0.038;2022-10-23T10:41:10;16.40;99.90
46231;DHT22;31949;51.404;-0.038;2022-10-23T10:49:41;16.40;99.90
46231;DHT22;31949;51.404;-0.038;2022-10-23T10:55:40;16.70;99.90
46231;DHT22;31949;51.404;-0.038;2022-10-23T11:01:16;16.80;99.90
46231;DHT22;31949;51.404;-0.038;2022-10-23T11:03:51;16.90;99.90
46231;DHT22;31949;51.404;-0.038;2022-10-23T11:06:22;16.90;99.90
46231;DHT22;31949;51.404;-0.038;2022-10-23T11:08:50;17.00;99.90
46231;DHT22;31949;51.404;-0.038;2022-10-23T11:11:46;17.10;99.90
46231;DHT22;31949;51.404;-0.038;2022-10-23T11:14:25;17.20;99.90
46231;DHT22;31949;51.404;-0.038;2022-10-23T11:17:07;17.30;99.90
46231;DHT22;31949;51.404;-0.038;2022-10-23T11:34:04;17.50;99.90
46231;DHT22;31949;51.404;-0.038;2022-10-23T11:39:25;17.80;99.90
46231;DHT22;31949;51.404;-0.038;2022-10-23T11:42:30;17.90;99.90
46231;DHT22;31949;51.404;-0.038;2022-10-23T11:45:36;17.90;99.90
46231;DHT22;31949;51.404;-0.038;2022-10-23T11:48:18;18.10;99.90
46231;DHT22;31949;51.404;-0.038;2022-10-23T11:53:35;18.30;99.90
46231;DHT22;31949;51.404;-0.038;2022-10-23T11:58:47;18.50;99.90
46231;DHT22;31949;51.404;-0.038;2022-10-23T12:01:42;18.70;99.90
46231;DHT22;31949;51.404;-0.038;2022-10-23T12:07:01;18.80;99.90
46231;DHT22;31949;51.404;-0.038;2022-10-23T12:09:50;18.70;99.90
46231;DHT22;31949;51.404;-0.038;2022-10-23T12:12:42;18.70;99.90
46231;DHT22;31949;51.404;-0.038;2022-10-23T12:15:22;18.60;99.90
46231;DHT22;31949;51.404;-0.038;2022-10-23T12:17:52;18.70;99.90
46231;DHT22;31949;51.404;-0.038;2022-10-23T12:20:50;18.70;99.90
46231;DHT22;31949;51.404;-0.038;2022-10-23T12:32:45;19.00;99.90
46231;DHT22;31949;51.404;-0.038;2022-10-23T12:38:28;19.10;99.90
46231;DHT22;31949;51.404;-0.038;2022-10-23T12:45:18;19.20;99.90
46231;DHT22;31949;51.404;-0.038;2022-10-23T12:47:46;19.00;99.90
46231;DHT22;31949;51.404;-0.038;2022-10-23T12:50:19;18.90;99.90
46231;DHT22;31949;51.404;-0.038;2022-10-23T12:53:03;18.80;99.90
46231;DHT22;31949;51.404;-0.038;2022-10-23T12:55:59;18.90;99.90
46231;DHT22;31949;51.404;-0.038;2022-10-23T12:58:33;18.90;99.90
46231;DHT22;31949;51.404;-0.038;2022-10-23T13:01:05;18.90;99.90
46231;DHT22;31949;51.404;-0.038;2022-10-23T13:03:33;18.90;99.90
46231;DHT22;31949;51.404;-0.038;2022-10-23T13:08:44;19.10;99.90
46231;DHT22;31949;51.404;-0.038;2022-10-23T13:11:32;19.20;99.90
46231;DHT22;31949;51.404;-0.038;2022-10-23T13:14:10;19.50;99.90
46231;DHT22;31949;51.404;-0.038;2022-10-23T13:16:40;19.50;99.90
46231;DHT22;31949;51.404;-0.038;2022-10-23T13:19:22;19.50;99.90
46231;DHT22;31949;51.404;-0.038;2022-10-23T13:21:50;19.70;99.90
46231;DHT22;31949;51.404;-0.038;2022-10-23T13:24:19;19.80;99.90
46231;DHT22;31949;51.404;-0.038;2022-10-23T13:26:47;19.80;99.90
46231;DHT22;31949;51.404;-0.038;2022-10-23T13:34:53;19.60;99.90
46231;DHT22;31949;51.404;-0.038;2022-10-23T13:37:36;19.60;99.90
46231;DHT22;31949;51.404;-0.038;2022-10-23T13:40:04;19.70;99.90
46231;DHT22;31949;51.404;-0.038;2022-10-23T13:42:33;19.60;99.90
46231;DHT22;31949;51.404;-0.038;2022-10-23T13:45:00;19.60;99.90
46231;DHT22;31949;51.404;-0.038;2022-10-23T13:47:27;19.50;99.90
46231;DHT22;31949;51.404;-0.038;2022-10-23T13:49:54;19.50;99.90
46231;DHT22;31949;51.404;-0.038;2022-10-23T13:52:22;19.40;99.90
46231;DHT22;31949;51.404;-0.038;2022-10-23T13:54:49;19.50;99.90
46231;DHT22;31949;51.404;-0.038;2022-10-23T13:57:16;19.50;99.90
46231;DHT22;31949;51.404;-0.038;2022-10-23T13:59:43;19.60;99.90
46231;DHT22;31949;51.404;-0.038;2022-10-23T14:02:19;19.60;99.90
46231;DHT22;31949;51.404;-0.038;2022-10-23T14:04:48;19.60;99.90
46231;DHT22;31949;51.404;-0.038;2022-10-23T14:07:18;19.70;99.90
46231;DHT22;31949;51.404;-0.038;2022-10-23T14:09:45;19.70;99.90
46231;DHT22;31949;51.404;-0.038;2022-10-23T14:12:13;19.70;99.90
46231;DHT22;31949;51.404;-0.038;2022-10-23T14:14:40;19.50;99.90
46231;DHT22;31949;51.404;-0.038;2022-10-23T14:17:08;19.40;99.90
46231;DHT22;31949;51.404;-0.038;2022-10-23T14:19:35;19.40;99.90
46231;DHT22;31949;51.404;-0.038;2022-10-23T14:22:07;19.30;99.90
46231;DHT22;31949;51.404;-0.038;2022-10-23T14:24:34;19.20;99.90
46231;DHT22;31949;51.404;-0.038;2022-10-23T14:27:02;19.20;99.90
46231;DHT22;31949;51.404;-0.038;2022-10-23T14:29:29;19.10;99.90
46231;DHT22;31949;51.404;-0.038;2022-10-23T14:31:56;19.10;99.90
46231;DHT22;31949;51.404;-0.038;2022-10-23T14:34:23;19.10;99.90
46231;DHT22;31949;51.404;-0.038;2022-10-23T14:36:50;19.20;99.90
46231;DHT22;31949;51.404;-0.038;2022-10-23T14:39:33;19.10;99.90
46231;DHT22;31949;51.404;-0.038;2022-10-23T14:42:00;19.20;99.90
46231;DHT22;31949;51.404;-0.038;2022-10-23T14:44:28;19.30;99.90
46231;DHT22;31949;51.404;-0.038;2022-10-23T14:46:55;19.30;99.90
46231;DHT22;31949;51.404;-0.038;2022-10-23T14:49:25;19.30;99.90
46231;DHT22;31949;51.404;-0.038;2022-10-23T14:51:56;19.30;99.90
46231;DHT22;31949;51.404;-0.038;2022-10-23T14:54:27;19.20;99.90
46231;DHT22;31949;51.404;-0.038;2022-10-23T14:57:00;19.20;99.90
46231;DHT22;31949;51.404;-0.038;2022-10-23T14:59:30;19.20;99.90
46231;DHT22;31949;51.404;-0.038;2022-10-23T15:01:58;19.10;99.90
46231;DHT22;31949;51.404;-0.038;2022-10-23T15:04:25;19.00;99.90
46231;DHT22;31949;51.404;-0.038;2022-10-23T15:06:52;19.00;99.90
46231;DHT22;31949;51.404;-0.038;2022-10-23T15:09:19;18.90;99.90
46231;DHT22;31949;51.404;-0.038;2022-10-23T15:11:47;18.80;99.90
46231;DHT22;31949;51.404;-0.038;2022-10-23T15:14:14;18.80;99.90
46231;DHT22;31949;51.404;-0.038;2022-10-23T15:16:41;18.70;99.90
46231;DHT22;31949;51.404;-0.038;2022-10-23T15:19:10;18.70;99.90
46231;DHT22;31949;51.404;-0.038;2022-10-23T15:21:44;18.70;99.90
46231;DHT22;31949;51.404;-0.038;2022-10-23T15:24:16;18.70;99.90
46231;DHT22;31949;51.404;-0.038;2022-10-23T15:26:44;18.60;99.90
46231;DHT22;31949;51.404;-0.038;2022-10-23T15:29:12;18.60;99.90
46231;DHT22;31949;51.404;-0.038;2022-10-23T15:31:43;18.60;99.90
46231;DHT22;31949;51.404;-0.038;2022-10-23T15:34:16;18.50;99.90
46231;DHT22;31949;51.404;-0.038;2022-10-23T15:36:45;18.50;99.90
46231;DHT22;31949;51.404;-0.038;2022-10-23T15:39:16;18.50;99.90
46231;DHT22;31949;51.404;-0.038;2022-10-23T15:41:43;18.40;99.90
46231;DHT22;31949;51.404;-0.038;2022-10-23T15:44:14;18.40;99.90
46231;DHT22;31949;51.404;-0.038;2022-10-23T15:46:46;18.30;99.90
46231;DHT22;31949;51.404;-0.038;2022-10-23T15:49:14;18.30;99.90
46231;DHT22;31949;51.404;-0.038;2022-10-23T15:51:42;18.20;99.90
46231;DHT22;31949;51.404;-0.038;2022-10-23T15:54:12;18.20;99.90
46231;DHT22;31949;51.404;-0.038;2022-10-23T15:56:52;18.10;99.90
46231;DHT22;31949;51.404;-0.038;2022-10-23T15:59:24;18.10;99.90
46231;DHT22;31949;51.404;-0.038;2022-10-23T16:01:52;18.10;99.90
46231;DHT22;31949;51.404;-0.038;2022-10-23T16:04:20;18.00;99.90
46231;DHT22;31949;51.404;-0.038;2022-10-23T16:06:48;18.00;99.90
46231;DHT22;31949;51.404;-0.038;2022-10-23T16:09:15;18.00;99.90
46231;DHT22;31949;51.404;-0.038;2022-10-23T16:11:43;18.00;99.90
46231;DHT22;31949;51.404;-0.038;2022-10-23T16:14:15;17.60;99.90
46231;DHT22;31949;51.404;-0.038;2022-10-23T16:16:42;17.00;99.90
46231;DHT22;31949;51.404;-0.038;2022-10-23T16:19:10;16.60;99.90
46231;DHT22;31949;51.404;-0.038;2022-10-23T16:21:37;16.20;99.90
46231;DHT22;31949;51.404;-0.038;2022-10-23T16:24:05;16.00;99.90
46231;DHT22;31949;51.404;-0.038;2022-10-23T16:26:34;15.80;99.90
46231;DHT22;31949;51.404;-0.038;2022-10-23T16:29:04;15.50;99.90
46231;DHT22;31949;51.404;-0.038;2022-10-23T16:31:32;15.30;99.90
46231;DHT22;31949;51.404;-0.038;2022-10-23T16:34:00;15.20;99.90
46231;DHT22;31949;51.404;-0.038;2022-10-23T16:36:28;15.10;99.90
46231;DHT22;31949;51.404;-0.038;2022-10-23T16:39:15;15.00;99.90
46231;DHT22;31949;51.404;-0.038;2022-10-23T16:42:02;14.90;99.90
46231;DHT22;31949;51.404;-0.038;2022-10-23T16:44:42;14.80;99.90
46231;DHT22;31949;51.404;-0.038;2022-10-23T16:47:09;14.80;99.90
46231;DHT22;31949;51.404;-0.038;2022-10-23T16:49:36;14.80;99.90
46231;DHT22;31949;51.404;-0.038;2022-10-23T16:52:06;14.90;99.90
46231;DHT22;31949;51.404;-0.038;2022-10-23T16:54:34;14.90;99.90
46231;DHT22;31949;51.404;-0.038;2022-10-23T16:57:01;14.90;99.90
46231;DHT22;31949;51.404;-0.038;2022-10-23T16:59:28;14.90;99.90
46231;DHT22;31949;51.404;-0.038;2022-10-23T17:01:55;14.80;99.90
46231;DHT22;31949;51.404;-0.038;2022-10-23T17:04:23;14.80;99.90
46231;DHT22;31949;51.404;-0.038;2022-10-23T17:06:50;14.80;99.90
46231;DHT22;31949;51.404;-0.038;2022-10-23T17:09:17;14.80;99.90
46231;DHT22;31949;51.404;-0.038;2022-10-23T17:11:45;14.80;99.90
46231;DHT22;31949;51.404;-0.038;2022-10-23T17:14:17;14.90;99.90
46231;DHT22;31949;51.404;-0.038;2022-10-23T17:16:46;14.80;99.90
46231;DHT22;31949;51.404;-0.038;2022-10-23T17:19:16;14.80;99.90
46231;DHT22;31949;51.404;-0.038;2022-10-23T17:22:04;14.70;99.90
46231;DHT22;31949;51.404;-0.038;2022-10-23T17:24:37;14.70;99.90
46231;DHT22;31949;51.404;-0.038;2022-10-23T17:27:05;14.70;99.90
46231;DHT22;31949;51.404;-0.038;2022-10-23T17:29:33;14.70;99.90
46231;DHT22;31949;51.404;-0.038;2022-10-23T17:32:00;14.60;99.90
46231;DHT22;31949;51.404;-0.038;2022-10-23T17:34:28;14.60;99.90
46231;DHT22;31949;51.404;-0.038;2022-10-23T17:36:55;14.50;99.90
46231;DHT22;31949;51.404;-0.038;2022-10-23T17:39:25;14.50;99.90
46231;DHT22;31949;51.404;-0.038;2022-10-23T17:41:53;14.50;99.90
46231;DHT22;31949;51.404;-0.038;2022-10-23T17:44:21;14.50;99.90
46231;DHT22;31949;51.404;-0.038;2022-10-23T17:46:52;14.40;99.90
46231;DHT22;31949;51.404;-0.038;2022-10-23T17:49:21;14.40;99.90
46231;DHT22;31949;51.404;-0.038;2022-10-23T17:51:54;14.40;99.90
46231;DHT22;31949;51.404;-0.038;2022-10-23T17:54:23;14.30;99.90
46231;DHT22;31949;51.404;-0.038;2022-10-23T17:56:50;14.30;99.90
46231;DHT22;31949;51.404;-0.038;2022-10-23T17:59:18;14.30;99.90
46231;DHT22;31949;51.404;-0.038;2022-10-23T18:01:46;14.30;99.90
46231;DHT22;31949;51.404;-0.038;2022-10-23T18:04:17;14.30;99.90